Badger Spring Valley, Nevada Weather observations

Data are for 10 minute period ending at time listed.
 Day   Time   Solar   Ave.   Ave.  Ave.  Vector  Max.   Baro.   Total    
  of    of     Rad.   Air    Rel.  Wind   Wind   Wind  Press.  Precip.   
Year   Day            Temp.  Hum.  Speed  Dir.   Gust                    
2014   (PST)  Kw/m2    F      %     mph   deg.    mph    mb.     in.     
-------------------------------------------------------------------------
 350   17:20   0.00   35.2    66    2.3   341     2.8   827.4    0.00 
 350   17:30   0.00   35.0    66    2.7   318     3.9   827.4    0.00 
 350   17:40   0.00   35.2    65    2.7   298     3.9   827.5    0.00 
 350   17:50   0.00   34.9    68    3.9   290     4.5   827.5    0.00 
 350   18:00   0.00   34.5    69    4.3   288     5.0   827.6    0.00 
 350   18:10   0.00   34.7    68    4.1   286     5.3   827.8    0.00 
 350   18:20   0.00   34.1    71    4.3   285     5.4   827.8    0.00 
 350   18:30   0.00   33.7    72    5.0   282     6.0   827.9    0.00 
 350   18:40   0.00   34.3    70    4.2   274     5.6   827.8    0.00 
 350   18:50   0.00   33.6    72    4.6   287     5.6   827.8    0.00 
 350   19:00   0.00   33.6    71    4.0   278     5.6   827.8    0.00 
 350   19:10   0.00   33.7    70    3.3   272     5.0   827.9    0.00 
 350   19:20   0.00   34.0    68    1.7   256     5.0   827.9    0.00 
 350   19:30   0.00   34.6    66    2.4   278     3.5   827.9    0.00 
 350   19:40   0.00   34.8    65    2.7   275     5.5   827.9    0.00 
 350   19:50   0.00   34.0    68    3.7   286     5.5   827.8    0.00 
 350   20:00   0.00   34.2    67    4.2   270     6.9   827.9    0.00 
 350   20:10   0.00   33.9    68    5.2   273     7.4   827.9    0.00 
 350   20:20   0.00   34.6    66    4.2   272     6.7   827.9    0.00 
 350   20:30   0.00   34.3    67    3.4   277     4.7   827.9    0.00 
 350   20:40   0.00   34.4    67    3.2   291     4.7   827.8    0.00 
 350   20:50   0.00   34.2    69    1.9   303     4.4   827.8    0.00 
 350   21:00   0.00   34.6    69    2.5   287     5.4   827.8    0.00 
 350   21:10   0.00   34.7    70    5.5   288     7.3   827.8    0.00 
 350   21:20   0.00   34.9    69    3.8   294     5.5   827.7    0.00 
 350   21:30   0.00   35.3    68    2.8   287     4.8   827.7    0.00 
 350   21:40   0.00   35.7    66    2.6   292     3.9   827.7    0.00 
 350   21:50   0.00   35.7    66    3.0   257     4.2   827.8    0.00 
 350   22:00   0.00   35.4    66    3.4   287     4.9   827.7    0.00 
 350   22:10   0.00   35.3    66    3.7   284     4.7   827.7    0.00 
 350   22:20   0.00   35.2    68    3.9   270     4.8   827.8    0.00 
 350   22:30   0.00   35.3    68    3.8   252     4.7   827.8    0.00 
 350   22:40   0.00   35.4    67    2.4   251     3.5   827.8    0.00 
 350   22:50   0.00   35.2    67    3.1   259     3.9   827.8    0.00 
 350   23:00   0.00   35.2    68    2.1   250     3.7   827.8    0.00 
 350   23:10   0.00   35.4    66    3.3   246     4.4   827.8    0.00 
 350   23:20   0.00   35.6    67    4.0   221     5.9   827.7    0.00 
 350   23:30   0.00   35.6    67    4.4   169     6.4   827.6    0.00 
 350   23:40   0.00   34.4    73    6.0   147     9.0   827.5    0.00 
 350   23:50   0.00   32.1    89    4.6   140     6.6   827.5    0.00 
 351    0:00   0.00   31.4    95    2.1   131     4.1   827.5    0.00 
 351    0:10   0.00   31.2    96    1.3   107     2.0   827.4    0.00 
 351    0:20   0.00   31.2    97    0.1    97     1.0   827.4    0.00 
 351    0:30   0.00   31.2    97    0.0     0     0.0   827.4    0.00 
 351    0:40   0.00   31.2    97    0.7    34     2.3   827.3    0.00 
 351    0:50   0.00   31.2    98    1.9   327     2.6   827.2    0.00 
 351    1:00   0.00   31.3    98    1.3   266     2.9   827.2    0.00 
 351    1:10   0.00   31.3    98    0.8   107     2.2   827.1    0.00 
 351    1:20   0.00   31.3    98    0.0    70     0.6   827.0    0.00 
 351    1:30   0.00   31.3    98    0.4   200     1.3   827.1    0.00 
 351    1:40   0.00   31.4    97    1.5   320     4.2   827.1    0.00 
 351    1:50   0.00   31.5    97    3.0   336     5.3   827.1    0.00 
 351    2:00   0.00   31.5    97    2.9   348     6.0   827.1    0.00 
 351    2:10   0.00   31.9    97    3.0    18     4.5   827.1    0.00 
 351    2:20   0.00   32.1    96    2.0    20     3.9   827.0    0.00 
 351    2:30   0.00   32.1    96    1.9   351     3.1   827.0    0.00 
 351    2:40   0.00   32.1    96    2.2     8     3.7   827.0    0.00 
 351    2:50   0.00   32.2    96    2.2    11     3.5   826.9    0.00 
 351    3:00   0.00   32.1    97    2.3     6     4.3   826.9    0.00 
 351    3:10   0.00   32.1    97    2.0     5     3.1   826.9    0.00 
 351    3:20   0.00   32.2    97    2.8   359     4.0   826.9    0.00 
 351    3:30   0.00   32.3    97    2.7    10     4.3   826.8    0.00 
 351    3:40   0.00   32.3    97    2.3     2     3.7   826.8    0.00 
 351    3:50   0.00   32.2    97    1.8   351     4.1   826.8    0.00 
 351    4:00   0.00   32.1    97    2.7     9     4.3   826.7    0.00 
 351    4:10   0.00   32.1    97    1.8   356     3.0   826.7    0.00 
 351    4:20   0.00   32.1    97    2.3   360     3.4   826.6    0.00 
 351    4:30   0.00   32.1    97    3.7   357     6.8   826.6    0.00 
 351    4:40   0.00   31.9    97    3.9   346     6.0   826.6    0.00 
 351    4:50   0.00   31.9    97    4.3   350     6.0   826.6    0.00 
 351    5:00   0.00   32.0    97    3.6   345     5.5   826.7    0.00 
 351    5:10   0.00   32.1    97    3.7   350     4.9   826.7    0.00 
 351    5:20   0.00   32.0    97    3.4   354     5.1   826.7    0.00 
 351    5:30   0.00   31.8    97    1.1   313     3.6   826.9    0.00 
 351    5:40   0.00   32.0    97    1.6   287     3.0   826.9    0.00 
 351    5:50   0.00   32.3    97    1.0   296     2.3   827.0    0.00 
 351    6:00   0.00   32.2    97    2.5   324     3.1   827.0    0.00 
 351    6:10   0.00   32.3    97    2.5   322     3.1   827.1    0.00 
 351    6:20   0.00   32.6    96    2.3   331     3.9   827.1    0.00 
 351    6:30   0.00   32.6    96    3.4     4     4.5   827.1    0.00 
 351    6:40   0.00   32.5    96    3.3    32     5.5   827.0    0.00 
 351    6:50   0.00   31.9    95    5.7    13     7.2   826.9    0.00 
 351    7:00   0.00   31.5    96    5.1     9     6.7   827.1    0.00 
 351    7:10   0.01   31.8    96    5.3   352     8.2   827.3    0.00 
 351    7:20   0.01   31.8    97    3.3   348     5.9   827.4    0.00 
 351    7:30   0.02   32.3    97    1.0     3     3.1   827.4    0.00 
 351    7:40   0.02   32.7    96    1.9   316     2.9   827.5    0.00 
 351    7:50   0.03   33.1    96    0.4   313     1.6   827.5    0.00 
 351    8:00   0.04   33.4    95    1.1   308     1.8   827.6    0.00 
 351    8:10   0.05   33.8    95    1.1   260     2.3   827.6    0.00 
 351    8:20   0.05   34.1    93    1.5   216     2.7   827.8    0.00 
 351    8:30   0.05   34.0    92    2.9   194     4.6   827.9    0.00 
 351    8:40   0.08   34.0    91    2.3   161     4.5   828.0    0.01 
 351    8:50   0.10   34.2    91    2.8   171     4.7   828.0    0.00 
 351    9:00   0.11   34.6    91    1.6   192     3.0   828.2    0.01 
 351    9:10   0.14   35.0    90    1.7   195     3.3   828.2    0.02 
 351    9:20   0.15   35.0    89    3.1   191     5.0   828.3    0.01 
 351    9:30   0.16   35.2    88    2.2   180     5.1   828.4    0.00 
 351    9:40   0.12   35.2    89    1.9   144     4.6   828.6    0.00 
 351    9:50   0.10   35.3    89    2.5   178     4.5   828.6    0.00 
 351   10:00   0.16   35.3    90    3.7   188     5.0   828.7    0.00 
 351   10:10   0.14   35.4    90    3.5   176     5.9   828.7    0.00 
 351   10:20   0.13   35.0    90    4.0   150     6.1   828.7    0.00 
 351   10:30   0.14   34.9    91    4.6   161     5.8   828.6    0.00 
 351   10:40   0.14   35.1    92    4.9   155     7.7   828.4    0.00 
 351   10:50   0.11   34.9    91    4.5   157     7.3   828.4    0.00 
 351   11:00   0.10   34.7    91    4.4   154     5.8   828.3    0.00 
 351   11:10   0.11   34.8    92    4.3   148     6.6   828.2    0.00 
 351   11:20   0.11   34.8    94    5.0   131     6.9   828.1    0.00 
 351   11:30   0.11   34.7    94    5.2   139     8.1   828.1    0.00 
 351   11:40   0.09   34.7    94    4.7   143     7.8   827.9    0.00 
 351   11:50   0.10   34.7    94    5.0   133     7.2   827.8    0.00 
 351   12:00   0.10   34.9    94    5.3   157     8.3   827.7    0.00 
 351   12:10   0.11   35.0    93    3.9   172     7.5   827.7    0.00 
 351   12:20   0.10   35.3    92    3.5   160     6.4   827.6    0.00 
 351   12:30   0.08   35.0    94    5.4   132     7.3   827.4    0.00 
 351   12:40   0.10   34.9    95    4.6   140     6.9   827.4    0.00 
 351   12:50   0.07   35.0    96    4.8   172     6.9   827.5    0.00 
 351   13:00   0.09   34.9    95    5.0   155     6.8   827.5    0.00 
 351   13:10   0.07   35.2    94    3.9   159     6.9   827.4    0.00 
 351   13:20   0.08   35.5    93    4.5   168     6.6   827.3    0.00 
 351   13:30   0.10   35.6    93    4.6   182     7.2   827.4    0.00 
 351   13:40   0.12   35.9    92    3.8   173     5.3   827.4    0.00 
 351   13:50   0.07   35.9    92    4.4   158     6.3   827.4    0.00 
 351   14:00   0.06   35.6    93    4.4   157     6.2   827.5    0.00 
 351   14:10   0.06   35.6    94    4.6   156     6.9   827.6    0.00 
 351   14:20   0.05   35.5    95    4.7   149     7.2   827.6    0.00 
 351   14:30   0.06   35.5    95    4.5   139     6.6   827.6    0.00 
 351   14:40   0.08   35.5    95    4.7   134     6.8   827.5    0.00 
 351   14:50   0.04   35.5    95    4.1   137     6.4   827.6    0.00 
 351   15:00   0.03   35.5    96    4.4   140     6.2   827.6    0.00 
 351   15:10   0.02   35.4    96    4.9   159     6.9   827.7    0.00 
 351   15:20   0.01   35.3    97    5.8   159     7.7   827.8    0.00 
 351   15:30   0.02   35.3    97    4.6   156     6.3   827.8    0.00 
 351   15:40   0.01   35.2    97    4.6   159     6.5   827.7    0.00 
 351   15:50   0.01   35.0    97    4.8   155     6.9   827.8    0.00 
 351   16:00   0.01   35.0    98    5.2   158     7.7   827.8    0.00 
 351   16:10   0.00   35.0    98    5.9   169     8.3   828.0    0.00 
 351   16:20   0.00   34.9    98    5.6   172     7.7   828.1    0.00 
 351   16:30   0.00   34.8    98    5.1   167     6.9   828.1    0.00 
 351   16:40   0.00   34.6    99    5.8   174     7.8   828.3    0.00 
 351   16:50   0.00   34.3    99    3.6   193     6.0   828.4    0.00 
 351   17:00   0.00   34.5    99    3.1   186     5.0   828.5    0.00 
 351   17:10   0.00   34.4    99    4.7   177     6.1   828.6    0.01 

Return to Badger Spring Valley graphs page.


Western Regional Climate Center,wrcc@dri.edu